Dikhil Airport


Codes: HDDK/
Name: Dikhil Airport
City: Dikhil
Country: Djibouti
Elevation: 0 ft.
Wikipedia:

Photos at Dikhil Airport


   Photos courtesy of SpottingLog. You can add your own sightings and photos by signing up for a free trial today.



No photos found.

Weather at Dikhil Airport


Time (UTC)DescriptionTempratureWindCloud coverageVisibilityPressureHumidity
26-Jun-2024 00:00Overcast Clouds31°C11 mph, SW91%10000m1004hPa44%
26-Jun-2024 03:00Overcast Clouds31°C13 mph, SW93%10000m1004hPa43%
26-Jun-2024 06:00Overcast Clouds33°C18 mph, SW85%10000m1005hPa38%
26-Jun-2024 09:00Overcast Clouds37°C13 mph, W87%10000m1004hPa24%
26-Jun-2024 12:00Overcast Clouds38°C9 mph, NW89%10000m1002hPa23%
26-Jun-2024 15:00Broken Clouds39°C4 mph, W82%10000m1001hPa21%
26-Jun-2024 18:00Overcast Clouds38°C4 mph, SE91%10000m1003hPa24%
26-Jun-2024 21:00Overcast Clouds34°C13 mph, S100%10000m1004hPa31%
27-Jun-2024 00:00Overcast Clouds33°C9 mph, SW100%10000m1004hPa34%
27-Jun-2024 03:00Overcast Clouds31°C9 mph, SW91%10000m1005hPa37%
27-Jun-2024 06:00Overcast Clouds34°C20 mph, SW89%10000m1007hPa32%
27-Jun-2024 09:00Overcast Clouds37°C16 mph, SW99%10000m1005hPa26%
27-Jun-2024 12:00Overcast Clouds39°C11 mph, W97%10000m1002hPa22%
27-Jun-2024 15:00Overcast Clouds38°C2 mph, W100%10000m1002hPa22%
27-Jun-2024 18:00Overcast Clouds37°C2 mph, SE100%10000m1004hPa24%
27-Jun-2024 21:00Light Rain34°C16 mph, S100%10000m1005hPa30%
28-Jun-2024 00:00Light Rain32°C18 mph, SW100%10000m1005hPa35%
28-Jun-2024 03:00Overcast Clouds30°C16 mph, SW86%10000m1006hPa39%
28-Jun-2024 06:00Broken Clouds33°C18 mph, SW75%10000m1008hPa31%
28-Jun-2024 09:00Scattered Clouds37°C18 mph, SW34%10000m1005hPa25%
28-Jun-2024 12:00Scattered Clouds39°C9 mph, W47%10000m1002hPa19%
28-Jun-2024 15:00Overcast Clouds39°C4 mph, NW92%10000m1002hPa20%
28-Jun-2024 18:00Light Rain34°C13 mph, NW89%10000m1005hPa32%
28-Jun-2024 21:00Light Rain35°C11 mph, SW100%10000m1005hPa29%
29-Jun-2024 00:00Overcast Clouds33°C9 mph, SW100%10000m1004hPa32%
29-Jun-2024 03:00Overcast Clouds31°C16 mph, SW100%10000m1006hPa36%
29-Jun-2024 06:00Overcast Clouds34°C20 mph, SW99%10000m1007hPa31%
29-Jun-2024 09:00Overcast Clouds38°C16 mph, SW100%10000m1004hPa24%
29-Jun-2024 12:00Overcast Clouds39°C11 mph, NW99%10000m1002hPa20%
29-Jun-2024 15:00Overcast Clouds38°C7 mph, W100%10000m1002hPa21%
29-Jun-2024 18:00Light Rain36°C7 mph, N100%10000m1004hPa26%
29-Jun-2024 21:00Overcast Clouds35°C2 mph, SE100%10000m1004hPa28%
30-Jun-2024 00:00Overcast Clouds33°C11 mph, SW94%10000m1004hPa30%
30-Jun-2024 03:00Overcast Clouds31°C18 mph, SW95%10000m1006hPa33%
30-Jun-2024 06:00Overcast Clouds35°C20 mph, SW94%10000m1006hPa30%
30-Jun-2024 09:00Overcast Clouds39°C16 mph, W100%10000m1004hPa21%
30-Jun-2024 12:00Overcast Clouds40°C11 mph, NW100%10000m1002hPa18%
30-Jun-2024 15:00Broken Clouds40°C9 mph, SW84%10000m1001hPa18%
30-Jun-2024 18:00Light Rain37°C2 mph, SW92%10000m1003hPa22%
30-Jun-2024 21:00Broken Clouds35°C7 mph, SE71%10000m1004hPa26%